createdAt,value
2019-03-31T00:01:46.345Z,56.37
2019-03-31T00:04:15.154Z,55.83
2019-03-31T00:06:43.954Z,56.67
2019-03-31T00:09:12.797Z,56.20
2019-03-31T00:11:41.613Z,57.60
2019-03-31T00:14:10.457Z,57.47
2019-03-31T00:16:39.339Z,55.53
2019-03-31T00:19:08.279Z,54.63
2019-03-31T00:21:37.111Z,54.73
2019-03-31T00:24:05.926Z,56.07
2019-03-31T00:26:34.749Z,54.50
2019-03-31T00:29:03.614Z,56.73
2019-03-31T00:31:32.461Z,57.97
2019-03-31T00:34:01.274Z,56.40
2019-03-31T00:36:30.119Z,57.63
2019-03-31T00:38:59.014Z,56.70
2019-03-31T00:41:27.879Z,58.00
2019-03-31T00:43:58.473Z,61.33
2019-03-31T00:46:27.333Z,57.27
2019-03-31T00:48:56.220Z,57.57
2019-03-31T00:51:25.073Z,54.80
2019-03-31T00:53:53.973Z,59.43
2019-03-31T00:56:22.866Z,50.97
2019-03-31T00:58:51.713Z,57.40
2019-03-31T01:01:36.193Z,58.17
2019-03-31T01:04:00.101Z,54.17
2019-03-31T01:06:28.937Z,53.60
2019-03-31T01:08:57.907Z,56.30
2019-03-31T01:11:27.564Z,56.60
2019-03-31T01:13:56.435Z,52.60
2019-03-31T01:16:25.455Z,54.63
2019-03-31T01:18:54.798Z,56.03
2019-03-31T01:21:23.622Z,53.50
2019-03-31T01:23:52.422Z,53.47
2019-03-31T01:26:21.538Z,54.67
2019-03-31T01:28:50.505Z,56.40
2019-03-31T01:31:19.334Z,52.97
2019-03-31T01:33:48.174Z,57.83
2019-03-31T01:36:17.210Z,51.80
2019-03-31T01:38:46.124Z,48.47
2019-03-31T01:41:15.246Z,50.90
2019-03-31T01:43:44.095Z,52.90
2019-03-31T01:46:14.380Z,49.97
2019-03-31T01:48:43.297Z,48.60
2019-03-31T01:51:12.349Z,49.40
2019-03-31T01:53:41.166Z,48.77
2019-03-31T01:56:10.009Z,50.77
2019-03-31T01:58:38.877Z,46.10
2019-03-31T02:01:09.237Z,48.47
2019-03-31T02:03:38.074Z,45.40
2019-03-31T02:06:06.913Z,40.50
2019-03-31T02:08:35.756Z,43.53
2019-03-31T02:11:04.618Z,43.80
2019-03-31T02:13:33.459Z,45.63
2019-03-31T02:16:02.283Z,46.23
2019-03-31T02:18:33.420Z,43.93
2019-03-31T02:21:02.374Z,43.67
2019-03-31T02:23:31.199Z,46.63
2019-03-31T02:26:00.023Z,43.87
2019-03-31T02:28:28.861Z,46.73
2019-03-31T02:30:57.685Z,46.47
2019-03-31T02:33:26.603Z,43.53
2019-03-31T02:35:55.421Z,43.07
2019-03-31T02:38:24.266Z,43.30
2019-03-31T02:40:53.146Z,39.93
2019-03-31T02:43:22.390Z,41.87
2019-03-31T02:45:51.233Z,37.80
2019-03-31T02:48:20.080Z,39.67
2019-03-31T02:50:49.611Z,39.07
2019-03-31T02:53:18.442Z,31.13
2019-03-31T02:55:47.365Z,40.63
2019-03-31T02:58:16.277Z,41.60
2019-03-31T03:00:45.239Z,35.90
2019-03-31T03:03:15.613Z,33.83
2019-03-31T03:05:45.362Z,34.97
2019-03-31T03:08:14.210Z,31.67
2019-03-31T03:10:43.871Z,37.80
2019-03-31T03:13:13.906Z,33.53
2019-03-31T03:15:54.261Z,35.93
2019-03-31T03:18:23.167Z,35.70
2019-03-31T03:20:51.987Z,35.97
2019-03-31T03:23:20.826Z,31.67
2019-03-31T03:25:56.135Z,36.90
2019-03-31T03:28:20.231Z,34.37
2019-03-31T03:30:49.302Z,33.93
2019-03-31T03:33:18.918Z,33.47
2019-03-31T03:35:48.083Z,30.87
2019-03-31T03:38:16.979Z,31.23
2019-03-31T03:40:45.838Z,33.03
2019-03-31T03:43:14.651Z,34.07
2019-03-31T03:45:43.471Z,32.10
2019-03-31T03:48:12.302Z,31.33
2019-03-31T03:50:41.135Z,32.03
2019-03-31T03:53:10.006Z,29.60
2019-03-31T03:55:38.837Z,26.73
2019-03-31T03:58:07.816Z,30.47
2019-03-31T04:00:36.659Z,29.57
2019-03-31T04:03:05.474Z,27.90
2019-03-31T04:05:34.299Z,28.23
2019-03-31T04:08:03.157Z,24.77
2019-03-31T04:10:49.618Z,25.60
2019-03-31T04:13:18.448Z,29.67
2019-03-31T04:15:47.270Z,27.83
2019-03-31T04:18:16.143Z,30.07
2019-03-31T04:20:45.012Z,28.97
2019-03-31T04:23:13.826Z,26.17
2019-03-31T04:25:42.653Z,27.67
2019-03-31T04:28:11.505Z,27.60
2019-03-31T04:30:40.390Z,26.73
2019-03-31T04:33:09.340Z,23.87
2019-03-31T04:35:38.189Z,25.30
2019-03-31T04:38:07.010Z,22.97
2019-03-31T04:40:35.854Z,17.03
2019-03-31T04:43:04.669Z,22.73
2019-03-31T04:45:33.536Z,22.37
2019-03-31T04:48:02.436Z,21.30
2019-03-31T04:50:31.333Z,19.47
2019-03-31T04:53:00.163Z,19.57
2019-03-31T04:55:29.014Z,19.33
2019-03-31T04:57:57.798Z,20.43
2019-03-31T05:00:26.626Z,20.63
2019-03-31T05:02:55.473Z,20.63
2019-03-31T05:05:24.295Z,19.90
2019-03-31T05:07:53.254Z,21.57
2019-03-31T05:10:22.121Z,21.93
2019-03-31T05:12:50.941Z,19.23
2019-03-31T05:15:19.801Z,20.10
2019-03-31T05:17:48.703Z,20.17
2019-03-31T05:20:17.510Z,19.53
2019-03-31T05:22:46.362Z,21.97
2019-03-31T05:25:15.194Z,20.00
2019-03-31T05:27:44.051Z,18.47
2019-03-31T05:30:13.049Z,21.13
2019-03-31T05:32:41.873Z,17.40
2019-03-31T05:35:10.731Z,17.83
2019-03-31T05:37:50.346Z,20.70
2019-03-31T05:40:10.116Z,19.90
2019-03-31T05:42:38.956Z,13.43
2019-03-31T05:45:07.826Z,19.70
2019-03-31T05:47:36.650Z,15.70
2019-03-31T05:50:05.746Z,18.73
2019-03-31T05:52:34.598Z,17.10
2019-03-31T05:55:03.432Z,17.17
2019-03-31T05:57:32.280Z,16.63
2019-03-31T06:00:01.190Z,16.30
2019-03-31T06:02:30.016Z,18.40
2019-03-31T06:04:58.878Z,16.87
2019-03-31T06:07:27.714Z,16.60
2019-03-31T06:09:56.597Z,14.30
2019-03-31T06:12:25.421Z,16.50
2019-03-31T06:14:54.484Z,15.70
2019-03-31T06:17:23.338Z,15.77
2019-03-31T06:19:52.303Z,15.63
2019-03-31T06:22:22.758Z,15.37
2019-03-31T06:24:52.236Z,13.93
2019-03-31T06:27:21.111Z,15.53
2019-03-31T06:29:49.966Z,13.87
2019-03-31T06:32:19.829Z,16.03
2019-03-31T06:34:48.674Z,16.07
2019-03-31T06:37:17.502Z,15.77
2019-03-31T06:39:46.354Z,16.20
2019-03-31T06:42:15.342Z,15.60
2019-03-31T06:44:44.186Z,13.13
2019-03-31T06:47:14.121Z,14.20
2019-03-31T06:49:43.009Z,15.97
2019-03-31T06:52:11.861Z,15.60
2019-03-31T06:54:40.702Z,16.20
2019-03-31T06:57:09.537Z,14.00
2019-03-31T06:59:38.411Z,15.27
2019-03-31T07:02:07.270Z,16.77
2019-03-31T07:04:36.151Z,13.73
2019-03-31T07:07:05.029Z,16.27
2019-03-31T07:09:33.858Z,14.83
2019-03-31T07:12:02.769Z,15.00
2019-03-31T07:14:31.674Z,15.90
2019-03-31T07:17:00.481Z,15.60
2019-03-31T07:19:29.316Z,13.90
2019-03-31T07:21:58.153Z,16.37
2019-03-31T07:24:27.053Z,16.87
2019-03-31T07:26:55.918Z,16.03
2019-03-31T07:29:24.804Z,14.93
2019-03-31T07:31:53.675Z,12.03
2019-03-31T07:34:22.485Z,13.40
2019-03-31T07:36:51.316Z,14.13
2019-03-31T07:39:20.392Z,13.23
2019-03-31T07:41:49.644Z,13.57
2019-03-31T07:44:18.499Z,14.43
2019-03-31T07:46:47.314Z,12.30
2019-03-31T07:49:16.148Z,14.30
2019-03-31T07:51:44.996Z,12.17
2019-03-31T07:54:13.832Z,11.97
2019-03-31T07:56:42.707Z,11.47
2019-03-31T07:59:11.683Z,11.77
2019-03-31T08:01:40.607Z,11.70
2019-03-31T08:04:09.470Z,11.33
2019-03-31T08:06:38.400Z,13.63
2019-03-31T08:09:07.361Z,11.00
2019-03-31T08:11:36.179Z,11.57
2019-03-31T08:14:05.035Z,10.90
2019-03-31T08:16:33.874Z,10.27
2019-03-31T08:19:02.710Z,11.00
2019-03-31T08:21:31.542Z,11.07
2019-03-31T08:24:00.418Z,9.43
2019-03-31T08:26:29.243Z,10.90
2019-03-31T08:28:58.681Z,11.43
2019-03-31T08:31:27.675Z,9.90
2019-03-31T08:33:56.501Z,10.60
2019-03-31T08:36:25.348Z,9.60
2019-03-31T08:38:54.204Z,7.57
2019-03-31T08:41:23.046Z,8.27
2019-03-31T08:43:51.937Z,7.93
2019-03-31T08:46:20.771Z,7.67
2019-03-31T08:48:49.575Z,5.97
2019-03-31T08:51:18.461Z,7.67
2019-03-31T08:53:47.262Z,6.67
2019-03-31T08:56:16.090Z,6.17
2019-03-31T08:58:44.949Z,6.57
2019-03-31T09:01:15.878Z,5.97
2019-03-31T09:03:44.692Z,6.60
2019-03-31T09:06:13.533Z,5.20
2019-03-31T09:08:42.336Z,5.43
2019-03-31T09:11:11.153Z,6.17
2019-03-31T09:13:40.026Z,6.27
2019-03-31T09:16:08.834Z,5.07
2019-03-31T09:18:37.681Z,4.87
2019-03-31T09:21:06.544Z,4.47
2019-03-31T09:23:35.371Z,4.87
2019-03-31T09:26:04.214Z,4.40
2019-03-31T09:28:33.161Z,4.53
2019-03-31T09:31:02.011Z,4.63
2019-03-31T09:33:30.834Z,4.13
2019-03-31T09:35:59.701Z,4.47
2019-03-31T09:38:28.602Z,4.63
2019-03-31T09:40:57.429Z,3.40
2019-03-31T09:43:26.270Z,3.13
2019-03-31T09:45:55.082Z,3.00
2019-03-31T09:48:25.625Z,2.63
2019-03-31T09:50:56.621Z,2.63
2019-03-31T09:53:25.006Z,3.00
2019-03-31T09:55:53.834Z,3.00
2019-03-31T09:58:22.670Z,2.30
2019-03-31T10:00:51.538Z,2.33
2019-03-31T10:03:21.194Z,3.50
2019-03-31T10:05:50.029Z,2.17
2019-03-31T10:08:21.693Z,2.20
2019-03-31T10:10:49.389Z,2.43
2019-03-31T10:13:18.245Z,2.60
2019-03-31T10:15:47.041Z,2.23
2019-03-31T10:18:18.165Z,1.97
2019-03-31T10:20:46.474Z,2.00
2019-03-31T10:23:15.307Z,2.60
2019-03-31T10:25:44.137Z,2.37
2019-03-31T10:28:12.977Z,2.33
2019-03-31T10:30:41.817Z,2.23
2019-03-31T10:33:10.705Z,2.87
2019-03-31T10:35:39.533Z,2.00
2019-03-31T10:38:08.366Z,3.57
2019-03-31T10:40:37.349Z,2.50
2019-03-31T10:43:06.223Z,2.50
2019-03-31T10:45:35.066Z,2.67
2019-03-31T10:48:03.912Z,2.97
2019-03-31T10:50:32.809Z,3.13
2019-03-31T10:53:01.624Z,2.60
2019-03-31T10:55:30.471Z,2.80
2019-03-31T10:57:59.520Z,3.10
2019-03-31T11:00:31.912Z,2.30
2019-03-31T11:03:00.737Z,2.67
2019-03-31T11:05:29.680Z,3.03
2019-03-31T11:07:58.487Z,2.97
2019-03-31T11:10:27.294Z,3.40
2019-03-31T11:12:56.127Z,2.60
2019-03-31T11:15:26.568Z,2.70
2019-03-31T11:17:55.414Z,3.33
2019-03-31T11:20:24.265Z,2.50
2019-03-31T11:23:12.125Z,3.00
2019-03-31T11:25:41.033Z,2.40
2019-03-31T11:28:09.899Z,2.70
2019-03-31T11:30:38.706Z,3.33
2019-03-31T11:33:07.916Z,2.90
2019-03-31T11:35:36.893Z,3.07
2019-03-31T11:38:05.733Z,3.43
2019-03-31T11:40:34.992Z,2.47
2019-03-31T11:43:03.818Z,3.10
2019-03-31T11:45:32.661Z,2.97
2019-03-31T11:48:01.507Z,2.30
2019-03-31T11:50:30.373Z,3.23
2019-03-31T11:52:59.223Z,2.93
2019-03-31T11:55:28.065Z,2.40
2019-03-31T11:57:56.894Z,2.20
2019-03-31T12:00:26.522Z,3.97
2019-03-31T12:02:55.350Z,2.40
2019-03-31T12:05:24.230Z,2.00
2019-03-31T12:07:53.133Z,2.77
2019-03-31T12:10:21.981Z,2.47
2019-03-31T12:12:50.841Z,2.53
2019-03-31T12:15:19.661Z,2.30
2019-03-31T12:17:48.510Z,2.43
2019-03-31T12:20:17.318Z,2.17
2019-03-31T12:22:46.168Z,1.53
2019-03-31T12:25:15.051Z,2.17
2019-03-31T12:27:43.926Z,2.57
2019-03-31T12:30:12.803Z,2.33
2019-03-31T12:32:41.670Z,2.20
2019-03-31T12:35:10.569Z,2.00
2019-03-31T12:37:42.621Z,1.77
2019-03-31T12:40:15.087Z,2.33
2019-03-31T12:42:42.392Z,2.30
2019-03-31T12:45:11.239Z,2.37
2019-03-31T12:47:40.164Z,2.00
2019-03-31T12:50:09.029Z,1.83
2019-03-31T12:52:46.757Z,2.60
2019-03-31T12:55:08.486Z,3.10
2019-03-31T12:57:37.321Z,2.60
2019-03-31T13:00:07.098Z,2.20
2019-03-31T13:02:35.974Z,3.27
2019-03-31T13:05:04.945Z,2.30
2019-03-31T13:07:33.799Z,3.07
2019-03-31T13:10:02.621Z,1.73
2019-03-31T13:12:34.743Z,3.13
2019-03-31T13:15:02.006Z,2.30
2019-03-31T13:17:30.851Z,2.13
2019-03-31T13:19:59.692Z,1.80
2019-03-31T13:22:28.546Z,2.40
2019-03-31T13:24:57.363Z,2.30
2019-03-31T13:27:26.197Z,1.80
2019-03-31T13:29:55.040Z,2.73
2019-03-31T13:32:23.877Z,1.90
2019-03-31T13:34:52.789Z,2.27
2019-03-31T13:37:21.621Z,2.77
2019-03-31T13:39:50.486Z,2.13
2019-03-31T13:42:19.321Z,2.10
2019-03-31T13:44:48.134Z,2.27
2019-03-31T13:47:16.985Z,2.07
2019-03-31T13:49:45.813Z,1.57
2019-03-31T13:52:14.665Z,2.10
2019-03-31T13:54:43.497Z,2.70
2019-03-31T13:57:13.438Z,2.03
2019-03-31T13:59:42.892Z,2.30
2019-03-31T14:02:11.749Z,1.97
2019-03-31T14:04:51.463Z,2.57
2019-03-31T14:07:11.193Z,2.43
2019-03-31T14:09:40.073Z,1.80
2019-03-31T14:12:08.924Z,2.07
2019-03-31T14:14:37.778Z,1.90
2019-03-31T14:17:06.622Z,2.43
2019-03-31T14:19:35.452Z,1.37
2019-03-31T14:22:04.288Z,1.97
2019-03-31T14:24:33.131Z,1.53
2019-03-31T14:27:01.945Z,1.97
2019-03-31T14:29:30.778Z,2.00
2019-03-31T14:31:59.620Z,2.10
2019-03-31T14:34:28.477Z,2.13
2019-03-31T14:36:57.309Z,2.30
2019-03-31T14:39:26.162Z,2.03
2019-03-31T14:41:55.004Z,2.07
2019-03-31T14:44:23.879Z,1.80
2019-03-31T14:46:52.817Z,2.00
2019-03-31T14:49:21.637Z,2.20
2019-03-31T14:51:50.372Z,1.80
2019-03-31T14:54:19.185Z,2.37
2019-03-31T14:56:48.029Z,2.40
2019-03-31T14:59:16.862Z,2.90
2019-03-31T15:01:45.691Z,2.93
2019-03-31T15:04:14.514Z,3.00
2019-03-31T15:06:43.346Z,2.60
2019-03-31T15:09:12.217Z,3.37
2019-03-31T15:11:41.150Z,2.00
2019-03-31T15:14:09.998Z,2.63
2019-03-31T15:16:38.856Z,2.27
2019-03-31T15:19:07.710Z,2.10
2019-03-31T15:21:43.830Z,2.90
2019-03-31T15:24:07.176Z,2.20
2019-03-31T15:26:36.002Z,2.40
2019-03-31T15:29:04.905Z,3.20
2019-03-31T15:31:33.769Z,2.50
2019-03-31T15:34:02.681Z,2.33
2019-03-31T15:36:31.567Z,3.03
2019-03-31T15:39:08.785Z,2.50
2019-03-31T15:41:30.974Z,2.47
2019-03-31T15:43:59.794Z,2.50
2019-03-31T15:46:28.638Z,2.40
2019-03-31T15:48:57.506Z,2.70
2019-03-31T15:51:26.322Z,2.73
2019-03-31T15:53:55.150Z,2.93
2019-03-31T15:56:23.993Z,2.03
2019-03-31T15:58:53.964Z,2.20
2019-03-31T16:01:22.831Z,2.67
2019-03-31T16:03:51.686Z,2.40
2019-03-31T16:06:20.576Z,3.43
2019-03-31T16:08:49.153Z,2.83
2019-03-31T16:11:17.714Z,2.37
2019-03-31T16:13:46.301Z,3.00
2019-03-31T16:16:14.884Z,2.57
2019-03-31T16:18:43.467Z,2.27
2019-03-31T16:21:12.032Z,3.13
2019-03-31T16:23:40.614Z,1.90
2019-03-31T16:26:09.186Z,2.60
2019-03-31T16:28:37.730Z,2.43
2019-03-31T16:31:06.280Z,2.50
2019-03-31T16:33:34.843Z,2.50
2019-03-31T16:36:03.802Z,2.77
2019-03-31T16:38:32.397Z,2.60
2019-03-31T16:41:00.989Z,1.60
2019-03-31T16:43:29.555Z,2.20
2019-03-31T16:45:58.116Z,2.53
2019-03-31T16:48:26.666Z,1.73
2019-03-31T16:50:55.275Z,2.10
2019-03-31T16:53:23.946Z,1.80
2019-03-31T16:55:52.499Z,2.13
2019-03-31T16:58:21.108Z,2.10
2019-03-31T17:00:49.757Z,1.80
2019-03-31T17:03:18.491Z,2.13
2019-03-31T17:05:47.042Z,2.60
2019-03-31T17:08:15.593Z,1.60
2019-03-31T17:10:44.150Z,2.40
2019-03-31T17:13:12.702Z,1.50
2019-03-31T17:15:41.278Z,2.43
2019-03-31T17:18:09.849Z,1.80
2019-03-31T17:20:38.382Z,1.80
2019-03-31T17:23:06.935Z,2.20
2019-03-31T17:25:35.517Z,1.67
2019-03-31T17:28:04.106Z,2.00
2019-03-31T17:30:32.697Z,2.00
2019-03-31T17:33:01.245Z,2.10
2019-03-31T17:35:29.821Z,1.63
2019-03-31T17:37:58.363Z,2.23
2019-03-31T17:40:26.890Z,2.70
2019-03-31T17:42:55.445Z,2.13
2019-03-31T17:45:27.102Z,1.60
2019-03-31T17:47:55.690Z,2.53
2019-03-31T17:50:24.310Z,2.73
2019-03-31T17:52:52.914Z,2.07
2019-03-31T17:55:21.464Z,1.90
2019-03-31T17:57:50.085Z,1.77
2019-03-31T18:00:18.631Z,2.03
2019-03-31T18:02:47.162Z,1.80
2019-03-31T18:05:15.729Z,1.60
2019-03-31T18:07:44.366Z,2.07
2019-03-31T18:10:20.800Z,2.07
2019-03-31T18:12:43.306Z,2.03
2019-03-31T18:15:11.877Z,1.50
2019-03-31T18:17:41.563Z,1.87
2019-03-31T18:20:10.143Z,2.00
2019-03-31T18:22:38.680Z,2.50
2019-03-31T18:25:07.281Z,2.37
2019-03-31T18:27:35.809Z,1.87
2019-03-31T18:30:04.743Z,2.00
2019-03-31T18:32:33.298Z,2.10
2019-03-31T18:35:01.876Z,1.43
2019-03-31T18:37:30.480Z,1.73
2019-03-31T18:39:59.074Z,1.30
2019-03-31T18:42:27.682Z,1.70
2019-03-31T18:44:56.253Z,2.30
2019-03-31T18:47:24.859Z,1.57
2019-03-31T18:49:53.430Z,1.73
2019-03-31T18:52:22.021Z,1.80
2019-03-31T18:54:59.653Z,1.77
2019-03-31T18:57:42.764Z,1.90
2019-03-31T19:00:37.897Z,2.23
2019-03-31T19:03:24.097Z,1.57
2019-03-31T19:06:24.173Z,1.83
2019-03-31T19:09:10.455Z,1.70
2019-03-31T19:11:51.381Z,1.87
2019-03-31T19:14:47.811Z,2.30
2019-03-31T19:17:26.962Z,2.33
2019-03-31T19:20:26.703Z,2.17
2019-03-31T19:23:20.136Z,3.33
2019-03-31T19:26:00.051Z,2.20
2019-03-31T19:28:46.145Z,2.77
2019-03-31T19:31:42.290Z,2.00
2019-03-31T19:34:18.570Z,1.90
2019-03-31T19:37:04.572Z,2.70
2019-03-31T19:39:50.800Z,2.17
2019-03-31T19:42:35.946Z,1.97
2019-03-31T19:45:15.298Z,2.70
2019-03-31T19:48:14.956Z,1.30
2019-03-31T19:51:05.402Z,2.47
2019-03-31T19:54:01.975Z,1.83
2019-03-31T19:56:47.936Z,2.20
2019-03-31T19:59:26.404Z,2.63
2019-03-31T20:02:06.046Z,2.53
2019-03-31T20:05:02.782Z,1.93
2019-03-31T20:07:40.695Z,2.13
2019-03-31T20:10:40.609Z,3.30
2019-03-31T20:13:40.211Z,3.43
2019-03-31T20:16:15.775Z,2.33
2019-03-31T20:19:03.665Z,1.80
2019-03-31T20:22:00.289Z,2.37
2019-03-31T20:24:56.789Z,3.03
2019-03-31T20:27:44.466Z,2.20
2019-03-31T20:30:41.080Z,2.07
2019-03-31T20:33:28.698Z,2.33
2019-03-31T20:36:22.657Z,2.37
2019-03-31T20:39:08.837Z,2.60
2019-03-31T20:41:54.876Z,2.27
2019-03-31T20:44:23.425Z,2.23
2019-03-31T20:46:52.017Z,2.80
2019-03-31T20:49:20.571Z,2.37
2019-03-31T20:51:49.109Z,2.50
2019-03-31T20:54:17.713Z,2.33
2019-03-31T20:56:46.274Z,2.40
2019-03-31T20:59:15.547Z,2.50
2019-03-31T21:01:44.109Z,2.30
2019-03-31T21:04:12.660Z,3.37
2019-03-31T21:06:41.214Z,2.33
2019-03-31T21:09:09.834Z,2.53
2019-03-31T21:11:38.393Z,2.37
2019-03-31T21:14:06.955Z,3.87
2019-03-31T21:16:35.608Z,2.10
2019-03-31T21:19:04.145Z,2.63
2019-03-31T21:21:32.678Z,2.30
2019-03-31T21:24:01.233Z,2.53
2019-03-31T21:26:29.797Z,2.43
2019-03-31T21:28:58.313Z,2.60
2019-03-31T21:31:26.889Z,2.30
2019-03-31T21:33:55.438Z,2.30
2019-03-31T21:36:23.986Z,2.57
2019-03-31T21:38:52.541Z,2.77
2019-03-31T21:41:21.087Z,2.93
2019-03-31T21:43:49.714Z,2.50
2019-03-31T21:46:18.249Z,3.13
2019-03-31T21:48:46.829Z,2.50
2019-03-31T21:51:15.409Z,2.10
2019-03-31T21:53:43.946Z,2.33
2019-03-31T21:56:12.527Z,1.90
2019-03-31T21:58:41.110Z,2.40
2019-03-31T22:01:09.660Z,3.00
2019-03-31T22:03:38.206Z,2.20
2019-03-31T22:06:06.754Z,2.40
2019-03-31T22:08:35.387Z,2.30
2019-03-31T22:11:04.071Z,2.07
2019-03-31T22:13:32.606Z,2.60
2019-03-31T22:16:01.186Z,2.30
2019-03-31T22:18:29.726Z,2.53
2019-03-31T22:20:58.291Z,3.03
2019-03-31T22:23:26.891Z,3.17
2019-03-31T22:25:56.729Z,2.30
2019-03-31T22:28:25.317Z,2.47
2019-03-31T22:30:53.866Z,2.60
2019-03-31T22:33:22.434Z,2.73
2019-03-31T22:36:08.567Z,2.53
2019-03-31T22:38:37.186Z,1.80
2019-03-31T22:41:05.746Z,2.63
2019-03-31T22:43:34.276Z,2.20
2019-03-31T22:46:02.852Z,2.27
2019-03-31T22:48:31.406Z,2.10
2019-03-31T22:50:59.986Z,2.10
2019-03-31T22:53:28.572Z,2.87
2019-03-31T22:55:57.143Z,2.57
2019-03-31T22:58:25.719Z,1.60
2019-03-31T23:00:54.283Z,1.77
2019-03-31T23:03:22.862Z,2.43
2019-03-31T23:05:51.406Z,2.27
2019-03-31T23:08:19.973Z,1.97
2019-03-31T23:10:48.554Z,2.47
2019-03-31T23:13:17.097Z,2.53
2019-03-31T23:15:45.662Z,2.00
2019-03-31T23:18:14.241Z,2.57
2019-03-31T23:20:42.914Z,1.83
2019-03-31T23:23:11.477Z,2.17
2019-03-31T23:25:40.138Z,1.93
2019-03-31T23:28:08.707Z,2.23
2019-03-31T23:30:37.268Z,2.00
2019-03-31T23:33:05.825Z,2.10
2019-03-31T23:35:34.382Z,1.83
2019-03-31T23:38:02.978Z,1.67
2019-03-31T23:40:31.570Z,2.10
2019-03-31T23:43:00.108Z,2.47
2019-03-31T23:45:32.171Z,1.77
2019-03-31T23:47:59.148Z,2.80
2019-03-31T23:50:27.694Z,1.83
2019-03-31T23:52:56.261Z,1.73
2019-03-31T23:55:24.825Z,1.60
2019-03-31T23:57:53.401Z,1.80
